KRCA

Ellsworth AFB Airport

Rapid City, South Dakota, USA
METAR KRCA 261256Z AUTO 00000KT 10SM CLR 17/14 A2985 RMK AO2 SLP087 T01740139 FZRANO $
Observed Flight Rules
May-26 @ 12:56 UTC (24 minutes ago) Visual Flight Rules
Visibility Clouds
10 miles
  • Clear skies
Temperatures Readings
Current 17°C / 63°F
Dewpoint 14°C / 57°F
Humidity 83%
Altimeter 29.85" Hg
Pressure 1008.7 hPa
Elevation 999
METAR KRCA 261256Z AUTO 00000KT 10SM CLR 17/14 A2985 RMK AO2 SLP087 T01740139 FZRANO $
Observed Flight Rules
May-26 @ 12:56 UTC
(24 minutes ago)
VFR
Clouds
  • Clear skies
Temperature Dewpoint
17°C / 63°F 14°C / 57°F
Humidity Altimeter Pressure
83% 29.85" Hg 1008.7 hPa